Bernice Lind — WDC8364 — position and weather

sailwx.info

Track history (hours):
 
Tides and Currents Weather Stations Pressure Air Temp Water Temp Dewpoint Dewpoint Depression Visibility Wind Speed Wind Dir Waves Ship Positions

Bernice Lind

Owner: Riverview Equipment Company, LLC, Petaluma, CA. More information available from US FCC via Universal Licensing System and Coast Guard Vessel Documentation Center.

Last reported at 2016-Sep-15 22:20 UTC. Time now 2016-Sep-30 08:23 UTC.
Position N 38°06' W 122°16'.
Warning: this ship's position is 14 days out of date.

Length 20 m; draft 2.4 m.

Type: Towing. MMSI: 367085890.

Date/timePositionNaut miles runAvg speedWind from/ knotsBaromVisibWave heightAir tempDewpointWater temp
2016-Sep-15 22:20N 38°06' W 122°16'  
2016-Sep-07 00:08N 38°06' W 122°16'2 4.2
2016-Sep-06 23:33N 38°04' W 122°17'9 9.1
2016-Sep-06 22:33N 37°58' W 122°26'8 8.4
2016-Sep-06 21:33N 37°49' W 122°23'3 3.1
2016-Sep-06 20:33N 37°46' W 122°23'6 6.1
2016-Sep-06 19:33N 37°52' W 122°24'5 5.2
2016-Sep-06 18:33N 37°57' W 122°26'6 5.7
2016-Sep-06 17:32N 38°03' W 122°26'5 4.8
2016-Sep-06 16:31N 38°07' W 122°30'4 3.8
2016-Sep-06 15:30N 38°10' W 122°32'4 4.4
2016-Sep-06 14:33N 38°13' W 122°36'  
Track history (hours):
 
Tides and Currents Weather Stations Pressure Air Temp Water Temp Dewpoint Dewpoint Depression Visibility Wind Speed Wind Dir Waves Ship Positions

Bernice Lind

Owner: Riverview Equipment Company, LLC, Petaluma, CA. More information available from US FCC via Universal Licensing System and Coast Guard Vessel Documentation Center.

Last reported at 2016-Sep-15 22:20 UTC. Time now 2016-Sep-30 08:23 UTC.
Position N 38°06' W 122°16'.
Warning: this ship's position is 14 days out of date.

Length 20 m; draft 2.4 m.

Type: Towing. MMSI: 367085890.

Date/timePositionNaut miles runAvg speedWind from/ knotsBaromVisibWave heightAir tempDewpointWater temp
2016-Sep-15 22:20N 38°06' W 122°16'  
2016-Sep-07 00:08N 38°06' W 122°16'2 4.2
2016-Sep-06 23:33N 38°04' W 122°17'9 9.1
2016-Sep-06 22:33N 37°58' W 122°26'8 8.4
2016-Sep-06 21:33N 37°49' W 122°23'3 3.1
2016-Sep-06 20:33N 37°46' W 122°23'6 6.1
2016-Sep-06 19:33N 37°52' W 122°24'5 5.2
2016-Sep-06 18:33N 37°57' W 122°26'6 5.7
2016-Sep-06 17:32N 38°03' W 122°26'5 4.8
2016-Sep-06 16:31N 38°07' W 122°30'4 3.8
2016-Sep-06 15:30N 38°10' W 122°32'4 4.4
2016-Sep-06 14:33N 38°13' W 122°36'  

Dump ship's entire track history